createdAt,value
2023-04-29T00:00:34.030Z,23.60
2023-04-29T00:05:36.911Z,27.73
2023-04-29T00:10:39.798Z,25.73
2023-04-29T00:15:42.724Z,20.97
2023-04-29T00:20:45.833Z,16.63
2023-04-29T00:25:48.314Z,20.17
2023-04-29T00:30:51.331Z,18.63
2023-04-29T00:35:53.938Z,18.47
2023-04-29T00:40:56.934Z,14.80
2023-04-29T00:45:59.392Z,15.57
2023-04-29T00:51:04.069Z,17.20
2023-04-29T00:56:07.681Z,17.97
2023-04-29T01:01:11.559Z,17.30
2023-04-29T01:06:20.276Z,18.87
2023-04-29T01:11:27.295Z,18.30
2023-04-29T01:16:53.105Z,19.27
2023-04-29T01:21:56.194Z,17.67
2023-04-29T01:27:09.911Z,18.03
2023-04-29T01:32:43.552Z,17.33
2023-04-29T01:38:11.828Z,18.13
2023-04-29T01:43:16.735Z,19.27
2023-04-29T01:48:23.488Z,18.50
2023-04-29T01:53:26.066Z,14.67
2023-04-29T01:58:29.567Z,12.23
2023-04-29T02:04:08.856Z,13.93
2023-04-29T02:09:12.715Z,15.83
2023-04-29T02:14:24.070Z,13.10
2023-04-29T02:19:27.214Z,15.47
2023-04-29T02:24:32.011Z,17.20
2023-04-29T02:29:34.623Z,17.47
2023-04-29T02:34:37.176Z,14.50
2023-04-29T02:39:39.711Z,18.13
2023-04-29T02:44:42.694Z,19.67
2023-04-29T02:49:45.242Z,17.50
2023-04-29T02:54:47.778Z,16.70
2023-04-29T02:59:50.619Z,15.23
2023-04-29T03:04:53.425Z,14.47
2023-04-29T03:09:56.691Z,13.53
2023-04-29T03:14:59.456Z,19.03
2023-04-29T03:20:02.025Z,18.00
2023-04-29T03:25:06.118Z,18.43
2023-04-29T03:30:10.226Z,17.97
2023-04-29T03:35:21.124Z,18.57
2023-04-29T03:40:49.200Z,18.43
2023-04-29T03:45:53.287Z,20.30
2023-04-29T03:51:00.508Z,19.17
2023-04-29T03:56:03.625Z,19.83
2023-04-29T04:01:06.282Z,17.77
2023-04-29T04:06:18.737Z,17.97
2023-04-29T04:11:23.194Z,18.23
2023-04-29T04:16:34.848Z,20.87
2023-04-29T04:21:37.908Z,17.90
2023-04-29T04:26:43.867Z,18.03
2023-04-29T04:32:12.740Z,19.53
2023-04-29T04:37:15.491Z,20.13
2023-04-29T04:42:24.004Z,20.53
2023-04-29T04:47:28.171Z,18.43
2023-04-29T04:52:41.098Z,13.87
2023-04-29T04:58:06.831Z,13.33
2023-04-29T05:03:09.814Z,16.27
2023-04-29T05:08:12.367Z,13.53
2023-04-29T05:13:20.672Z,18.83
2023-04-29T05:18:23.536Z,16.20
2023-04-29T05:23:28.321Z,17.87
2023-04-29T05:28:30.991Z,19.60
2023-04-29T05:33:33.855Z,17.70
2023-04-29T05:38:36.654Z,16.50
2023-04-29T05:43:41.361Z,18.97
2023-04-29T05:48:44.011Z,13.87
2023-04-29T05:53:47.403Z,11.00
2023-04-29T05:58:50.320Z,10.53
2023-04-29T06:03:53.680Z,6.97
2023-04-29T06:09:26.448Z,14.67
2023-04-29T06:14:32.026Z,16.37
2023-04-29T06:19:35.055Z,8.50
2023-04-29T06:24:37.525Z,15.57
2023-04-29T06:29:41.171Z,14.67
2023-04-29T06:34:45.716Z,13.13
2023-04-29T06:40:07.579Z,12.00
2023-04-29T06:45:39.843Z,12.93
2023-04-29T06:50:57.043Z,12.97
2023-04-29T06:55:59.555Z,13.23
2023-04-29T07:01:04.113Z,14.47
2023-04-29T07:06:07.106Z,15.37
2023-04-29T07:11:09.671Z,14.90
2023-04-29T07:16:20.647Z,13.33
2023-04-29T07:21:23.546Z,11.63
2023-04-29T07:26:27.355Z,6.23
2023-04-29T07:31:30.093Z,13.83
2023-04-29T07:36:33.152Z,14.83
2023-04-29T07:41:35.919Z,14.77
2023-04-29T07:46:38.580Z,11.83
2023-04-29T07:51:44.422Z,9.63
2023-04-29T07:56:46.953Z,13.43
2023-04-29T08:01:49.597Z,14.67
2023-04-29T08:06:52.695Z,11.97
2023-04-29T08:11:55.219Z,7.57
2023-04-29T08:16:57.798Z,6.43
2023-04-29T08:22:01.172Z,11.77
2023-04-29T08:27:04.321Z,10.87
2023-04-29T08:32:07.023Z,13.33
2023-04-29T08:37:09.783Z,10.97
2023-04-29T08:42:12.643Z,12.70
2023-04-29T08:47:16.496Z,12.63
2023-04-29T08:52:18.950Z,12.47
2023-04-29T08:57:22.595Z,13.40
2023-04-29T09:02:26.112Z,11.93
2023-04-29T09:07:29.011Z,13.70
2023-04-29T09:12:31.774Z,11.33
2023-04-29T09:17:42.860Z,11.00
2023-04-29T09:22:54.178Z,13.47
2023-04-29T09:27:56.682Z,13.23
2023-04-29T09:33:09.689Z,10.53
2023-04-29T09:38:16.533Z,12.07
2023-04-29T09:43:19.434Z,14.60
2023-04-29T09:48:22.293Z,12.33
2023-04-29T09:53:30.144Z,13.07
2023-04-29T09:58:37.657Z,10.13
2023-04-29T10:03:42.809Z,4.77
2023-04-29T10:08:48.543Z,12.60
2023-04-29T10:13:52.703Z,11.80
2023-04-29T10:18:56.706Z,10.53
2023-04-29T10:24:00.303Z,11.23
2023-04-29T10:29:03.575Z,11.60
2023-04-29T10:34:06.022Z,11.47
2023-04-29T10:39:20.701Z,8.23
2023-04-29T10:44:24.117Z,10.73
2023-04-29T10:49:34.455Z,7.37
2023-04-29T10:54:36.936Z,7.20
2023-04-29T10:59:39.424Z,8.30
2023-04-29T11:05:08.702Z,6.47
2023-04-29T11:15:18.483Z,9.50
2023-04-29T11:20:21.213Z,10.90
2023-04-29T11:25:26.224Z,12.20
2023-04-29T11:30:29.974Z,11.23
2023-04-29T11:35:32.473Z,7.93
2023-04-29T11:40:35.064Z,11.03
2023-04-29T11:45:40.349Z,10.90
2023-04-29T11:50:42.969Z,5.37
2023-04-29T11:55:46.225Z,10.57
2023-04-29T12:00:48.972Z,10.50
2023-04-29T12:05:53.182Z,10.97
2023-04-29T12:10:57.828Z,11.37
2023-04-29T12:16:00.630Z,9.20
2023-04-29T12:21:03.187Z,10.70
2023-04-29T12:26:06.117Z,9.77
2023-04-29T12:31:13.581Z,11.03
2023-04-29T12:36:19.611Z,11.00
2023-04-29T12:41:40.349Z,8.93
2023-04-29T12:46:43.021Z,11.27
2023-04-29T12:51:46.070Z,7.53
2023-04-29T12:56:49.562Z,11.30
2023-04-29T13:01:52.381Z,5.60
2023-04-29T13:07:00.243Z,7.63
2023-04-29T13:12:02.928Z,9.47
2023-04-29T13:17:06.189Z,8.37
2023-04-29T13:22:09.219Z,10.53
2023-04-29T13:27:11.993Z,10.73
2023-04-29T13:32:16.362Z,9.57
2023-04-29T13:37:20.957Z,10.43
2023-04-29T13:42:26.562Z,8.63
2023-04-29T13:47:31.385Z,9.43
2023-04-29T13:58:31.213Z,11.03
2023-04-29T14:03:02.169Z,11.50
2023-04-29T14:08:05.016Z,11.30
2023-04-29T14:13:07.474Z,14.17
2023-04-29T14:18:11.808Z,12.33
2023-04-29T14:23:14.264Z,3.30
2023-04-29T14:28:16.671Z,3.67
2023-04-29T14:33:20.104Z,3.70
2023-04-29T14:38:22.550Z,4.17
2023-04-29T14:43:24.920Z,4.30
2023-04-29T14:48:28.569Z,5.03
2023-04-29T14:53:31.394Z,5.47
2023-04-29T14:58:34.002Z,5.93
2023-04-29T15:03:43.702Z,8.33
2023-04-29T15:08:47.867Z,7.70
2023-04-29T15:13:50.721Z,5.80
2023-04-29T15:18:53.291Z,5.70
2023-04-29T15:23:55.733Z,4.77
2023-04-29T15:28:58.162Z,5.80
2023-04-29T15:34:00.908Z,5.00
2023-04-29T15:39:03.577Z,4.67
2023-04-29T15:44:06.677Z,6.63
2023-04-29T15:49:09.079Z,5.83
2023-04-29T15:54:11.638Z,5.40
2023-04-29T15:59:15.860Z,6.87
2023-04-29T16:04:18.341Z,4.77
2023-04-29T16:09:21.593Z,4.13
2023-04-29T16:14:24.217Z,6.47
2023-04-29T16:19:26.752Z,4.60
2023-04-29T16:24:29.201Z,4.60
2023-04-29T16:29:31.676Z,5.57
2023-04-29T16:34:34.083Z,4.10
2023-04-29T16:39:36.526Z,5.87
2023-04-29T16:44:39.046Z,9.90
2023-04-29T16:49:42.467Z,5.33
2023-04-29T16:54:44.892Z,5.03
2023-04-29T16:59:47.404Z,5.57
2023-04-29T17:04:50.918Z,9.63
2023-04-29T17:09:53.555Z,5.87
2023-04-29T17:14:57.254Z,10.40
2023-04-29T17:19:59.712Z,10.00
2023-04-29T17:25:04.388Z,8.67
2023-04-29T17:30:08.480Z,9.37
2023-04-29T17:35:11.881Z,7.70
2023-04-29T17:40:15.037Z,8.87
2023-04-29T17:45:17.991Z,10.43
2023-04-29T17:50:20.352Z,14.87
2023-04-29T17:55:22.942Z,8.03
2023-04-29T18:00:25.606Z,14.30
2023-04-29T18:05:28.197Z,15.10
2023-04-29T18:10:30.792Z,20.20
2023-04-29T18:15:33.321Z,10.13
2023-04-29T18:20:36.331Z,15.67
2023-04-29T18:25:39.938Z,16.23
2023-04-29T18:30:42.493Z,18.60
2023-04-29T18:35:45.105Z,18.50
2023-04-29T18:40:48.489Z,23.87
2023-04-29T18:45:51.372Z,15.00
2023-04-29T18:50:55.078Z,19.30
2023-04-29T18:55:57.585Z,12.67
2023-04-29T19:01:02.528Z,17.90
2023-04-29T19:06:05.355Z,18.53
2023-04-29T19:11:07.940Z,20.77
2023-04-29T19:16:10.443Z,18.63
2023-04-29T19:21:16.754Z,17.87
2023-04-29T19:26:19.347Z,17.67
2023-04-29T19:31:21.984Z,15.80
2023-04-29T19:36:24.868Z,15.83
2023-04-29T19:41:27.280Z,12.93
2023-04-29T19:46:29.784Z,14.40
2023-04-29T19:51:32.312Z,11.50
2023-04-29T19:56:34.990Z,13.23
2023-04-29T20:01:37.517Z,14.17
2023-04-29T20:06:40.847Z,12.43
2023-04-29T20:11:43.516Z,14.60
2023-04-29T20:16:46.094Z,12.87
2023-04-29T20:21:48.476Z,10.33
2023-04-29T20:26:50.920Z,12.33
2023-04-29T20:31:53.359Z,12.47
2023-04-29T20:36:55.871Z,11.73
2023-04-29T20:41:58.668Z,12.00
2023-04-29T20:47:01.162Z,11.13
2023-04-29T20:52:06.444Z,13.00
2023-04-29T20:57:08.999Z,9.47
2023-04-29T21:02:12.262Z,10.77
2023-04-29T21:07:14.914Z,8.93
2023-04-29T21:12:17.516Z,10.97
2023-04-29T21:17:20.080Z,10.43
2023-04-29T21:22:22.480Z,9.43
2023-04-29T21:27:24.892Z,9.43
2023-04-29T21:32:27.456Z,10.80
2023-04-29T21:37:30.850Z,11.27
2023-04-29T21:42:34.801Z,9.33
2023-04-29T21:47:37.369Z,11.33
2023-04-29T21:52:40.020Z,10.83
2023-04-29T21:57:44.875Z,11.23
2023-04-29T22:02:47.966Z,9.47
2023-04-29T22:07:50.686Z,6.23
2023-04-29T22:12:53.317Z,8.13
2023-04-29T22:17:57.020Z,8.20
2023-04-29T22:22:59.757Z,7.87
2023-04-29T22:28:02.326Z,7.83
2023-04-29T22:33:04.847Z,8.10
2023-04-29T22:38:07.519Z,7.93
2023-04-29T22:43:10.222Z,8.37
2023-04-29T22:48:12.761Z,8.60
2023-04-29T22:53:15.348Z,7.80
2023-04-29T22:58:18.043Z,7.90
2023-04-29T23:03:20.729Z,8.17
2023-04-29T23:08:23.092Z,7.50
2023-04-29T23:13:26.764Z,8.27
2023-04-29T23:18:29.551Z,8.20
2023-04-29T23:23:31.984Z,7.90
2023-04-29T23:28:34.408Z,7.80
2023-04-29T23:33:36.917Z,8.80
2023-04-29T23:38:39.468Z,8.37
2023-04-29T23:43:41.994Z,8.20
2023-04-29T23:48:45.291Z,6.93
2023-04-29T23:53:47.775Z,8.67
2023-04-29T23:58:50.309Z,8.10
